createdAt,value
2023-04-18T00:01:34.707Z,11.80
2023-04-18T00:04:06.753Z,11.80
2023-04-18T00:06:39.065Z,11.80
2023-04-18T00:09:11.041Z,11.80
2023-04-18T00:11:43.082Z,11.80
2023-04-18T00:14:15.214Z,11.80
2023-04-18T00:16:47.658Z,11.70
2023-04-18T00:19:20.186Z,11.70
2023-04-18T00:21:53.148Z,11.70
2023-04-18T00:24:25.210Z,11.70
2023-04-18T00:26:57.199Z,11.60
2023-04-18T00:29:31.749Z,11.60
2023-04-18T00:32:03.704Z,11.60
2023-04-18T00:34:35.792Z,11.60
2023-04-18T00:37:08.182Z,11.60
2023-04-18T00:39:40.130Z,11.60
2023-04-18T00:42:12.128Z,11.60
2023-04-18T00:44:44.052Z,11.50
2023-04-18T00:47:17.601Z,11.50
2023-04-18T00:49:50.032Z,11.50
2023-04-18T00:52:22.208Z,11.50
2023-04-18T00:54:55.517Z,11.50
2023-04-18T00:57:27.712Z,11.50
2023-04-18T01:00:10.289Z,11.50
2023-04-18T01:02:42.390Z,11.50
2023-04-18T01:05:14.445Z,11.40
2023-04-18T01:07:46.420Z,11.40
2023-04-18T01:10:19.656Z,11.40
2023-04-18T01:13:11.739Z,11.30
2023-04-18T01:15:49.136Z,11.30
2023-04-18T01:18:22.600Z,11.20
2023-04-18T01:20:57.070Z,11.20
2023-04-18T01:23:30.015Z,11.10
2023-04-18T01:26:02.024Z,11.10
2023-04-18T01:28:37.379Z,11.10
2023-04-18T01:31:09.338Z,11.00
2023-04-18T01:33:41.768Z,11.00
2023-04-18T01:36:13.936Z,10.90
2023-04-18T01:38:45.943Z,10.90
2023-04-18T01:41:17.962Z,10.90
2023-04-18T01:43:49.996Z,10.90
2023-04-18T01:46:21.922Z,10.80
2023-04-18T01:48:54.131Z,10.80
2023-04-18T01:51:28.254Z,10.80
2023-04-18T01:54:00.311Z,10.80
2023-04-18T01:56:32.203Z,10.70
2023-04-18T01:59:04.227Z,10.70
2023-04-18T02:01:36.160Z,10.70
2023-04-18T02:04:08.206Z,10.60
2023-04-18T02:06:40.230Z,10.60
2023-04-18T02:09:12.400Z,10.60
2023-04-18T02:11:44.429Z,10.60
2023-04-18T02:14:16.412Z,10.50
2023-04-18T02:16:48.452Z,10.50
2023-04-18T02:19:20.422Z,10.40
2023-04-18T02:21:52.444Z,10.40
2023-04-18T02:24:24.394Z,10.40
2023-04-18T02:26:56.339Z,10.30
2023-04-18T02:29:30.525Z,10.30
2023-04-18T02:32:03.310Z,10.30
2023-04-18T02:34:36.913Z,10.20
2023-04-18T02:37:08.850Z,10.20
2023-04-18T02:39:40.935Z,10.20
2023-04-18T02:42:12.909Z,10.20
2023-04-18T02:44:44.830Z,10.10
2023-04-18T02:47:16.739Z,10.10
2023-04-18T02:49:48.775Z,10.10
2023-04-18T02:52:20.724Z,10.00
2023-04-18T02:54:52.824Z,10.00
2023-04-18T02:57:24.805Z,10.00
2023-04-18T02:59:56.781Z,9.90
2023-04-18T03:02:28.767Z,9.90
2023-04-18T03:05:00.799Z,9.90
2023-04-18T03:07:32.716Z,9.80
2023-04-18T03:10:05.521Z,9.80
2023-04-18T03:12:37.465Z,9.80
2023-04-18T03:15:10.063Z,9.80
2023-04-18T03:17:42.474Z,9.70
2023-04-18T03:20:14.535Z,9.70
2023-04-18T03:22:46.450Z,9.70
2023-04-18T03:25:18.360Z,9.60
2023-04-18T03:27:50.526Z,9.60
2023-04-18T03:30:22.787Z,9.50
2023-04-18T03:32:56.169Z,9.50
2023-04-18T03:35:28.594Z,9.50
2023-04-18T03:38:00.606Z,9.50
2023-04-18T03:40:32.613Z,9.50
2023-04-18T03:43:04.557Z,9.40
2023-04-18T03:45:36.877Z,9.40
2023-04-18T03:48:08.826Z,9.40
2023-04-18T03:50:40.967Z,9.40
2023-04-18T03:53:12.962Z,9.40
2023-04-18T03:55:44.945Z,9.30
2023-04-18T03:58:18.049Z,9.30
2023-04-18T04:00:53.232Z,9.30
2023-04-18T04:03:25.273Z,9.30
2023-04-18T04:05:57.629Z,9.20
2023-04-18T04:08:29.602Z,9.20
2023-04-18T04:11:01.563Z,9.20
2023-04-18T04:13:33.496Z,9.10
2023-04-18T04:16:06.372Z,9.10
2023-04-18T04:18:38.348Z,9.10
2023-04-18T04:21:10.290Z,9.10
2023-04-18T04:23:42.745Z,9.00
2023-04-18T04:26:17.482Z,9.00
2023-04-18T04:28:53.594Z,9.00
2023-04-18T04:31:25.578Z,9.00
2023-04-18T04:33:57.722Z,9.10
2023-04-18T04:36:29.770Z,9.10
2023-04-18T04:39:04.229Z,9.00
2023-04-18T04:41:37.645Z,9.00
2023-04-18T04:44:09.778Z,9.00
2023-04-18T04:46:42.181Z,9.00
2023-04-18T04:49:14.363Z,8.90
2023-04-18T04:51:46.342Z,8.90
2023-04-18T04:54:18.396Z,8.90
2023-04-18T04:56:51.203Z,8.90
2023-04-18T04:59:23.101Z,8.80
2023-04-18T05:01:55.075Z,8.80
2023-04-18T05:04:27.123Z,8.80
2023-04-18T05:06:59.362Z,8.80
2023-04-18T05:09:31.324Z,8.80
2023-04-18T05:12:03.703Z,8.80
2023-04-18T05:14:35.674Z,8.80
2023-04-18T05:17:07.897Z,8.80
2023-04-18T05:19:40.989Z,8.80
2023-04-18T05:22:12.902Z,8.80
2023-04-18T05:24:44.931Z,8.80
2023-04-18T05:27:18.171Z,8.80
2023-04-18T05:29:50.936Z,8.80
2023-04-18T05:32:22.984Z,8.80
2023-04-18T05:34:54.973Z,8.80
2023-04-18T05:37:27.017Z,8.80
2023-04-18T05:40:00.744Z,8.80
2023-04-18T05:42:33.431Z,8.80
2023-04-18T05:45:06.106Z,8.80
2023-04-18T05:47:38.137Z,8.80
2023-04-18T05:50:10.897Z,8.90
2023-04-18T05:52:42.887Z,8.90
2023-04-18T05:55:14.859Z,8.90
2023-04-18T05:57:46.839Z,9.00
2023-04-18T06:00:19.876Z,9.00
2023-04-18T06:02:52.024Z,9.00
2023-04-18T06:05:24.516Z,9.10
2023-04-18T06:07:56.804Z,9.10
2023-04-18T06:10:29.704Z,9.20
2023-04-18T06:13:02.072Z,9.20
2023-04-18T06:15:35.376Z,9.20
2023-04-18T06:18:07.591Z,9.20
2023-04-18T06:20:39.800Z,9.20
2023-04-18T06:23:11.823Z,9.20
2023-04-18T06:25:43.936Z,9.20
2023-04-18T06:28:16.219Z,9.20
2023-04-18T06:30:48.154Z,9.30
2023-04-18T06:33:20.060Z,9.30
2023-04-18T06:35:52.584Z,9.40
2023-04-18T06:38:24.501Z,9.40
2023-04-18T06:40:56.478Z,9.40
2023-04-18T06:43:31.262Z,9.40
2023-04-18T06:46:05.457Z,9.40
2023-04-18T06:48:37.528Z,9.40
2023-04-18T06:51:09.412Z,9.50
2023-04-18T06:53:41.626Z,9.60
2023-04-18T06:56:13.671Z,9.60
2023-04-18T06:58:45.790Z,9.70
2023-04-18T07:01:17.785Z,9.70
2023-04-18T07:03:49.826Z,9.80
2023-04-18T07:06:21.760Z,9.80
2023-04-18T07:08:56.046Z,9.80
2023-04-18T07:11:28.703Z,9.80
2023-04-18T07:14:00.760Z,9.80
2023-04-18T07:16:32.833Z,9.90
2023-04-18T07:19:06.656Z,9.80
2023-04-18T07:21:40.656Z,9.90
2023-04-18T07:24:13.054Z,9.90
2023-04-18T07:26:45.335Z,10.00
2023-04-18T07:29:19.353Z,10.10
2023-04-18T07:31:52.072Z,10.10
2023-04-18T07:34:24.350Z,10.20
2023-04-18T07:36:57.700Z,10.30
2023-04-18T07:39:31.823Z,10.40
2023-04-18T07:42:05.203Z,10.40
2023-04-18T07:44:37.155Z,10.40
2023-04-18T07:47:12.375Z,10.50
2023-04-18T07:49:44.375Z,10.60
2023-04-18T07:52:16.470Z,10.70
2023-04-18T07:54:48.397Z,10.80
2023-04-18T07:57:20.539Z,10.90
2023-04-18T07:59:53.916Z,10.90
2023-04-18T08:02:26.014Z,11.00
2023-04-18T08:04:58.560Z,11.00
2023-04-18T08:07:31.029Z,11.10
2023-04-18T08:10:03.433Z,11.20
2023-04-18T08:12:36.632Z,11.20
2023-04-18T08:15:09.459Z,11.20
2023-04-18T08:17:43.997Z,11.20
2023-04-18T08:20:16.050Z,11.10
2023-04-18T08:23:05.221Z,11.10
2023-04-18T08:25:39.808Z,11.00
2023-04-18T08:28:12.017Z,11.00
2023-04-18T08:30:44.119Z,11.00
2023-04-18T08:33:16.355Z,11.00
2023-04-18T08:35:51.928Z,11.00
2023-04-18T08:38:23.838Z,11.10
2023-04-18T08:40:55.939Z,11.10
2023-04-18T08:43:30.166Z,11.20
2023-04-18T08:46:02.589Z,11.20
2023-04-18T08:48:34.531Z,11.30
2023-04-18T08:51:06.511Z,11.30
2023-04-18T08:53:39.634Z,11.30
2023-04-18T08:56:14.719Z,11.50
2023-04-18T08:58:46.688Z,11.60
2023-04-18T09:01:18.675Z,11.90
2023-04-18T09:03:51.210Z,12.30
2023-04-18T09:06:23.160Z,12.80
2023-04-18T09:08:58.936Z,13.20
2023-04-18T09:11:32.525Z,13.40
2023-04-18T09:14:04.426Z,13.60
2023-04-18T09:16:50.531Z,13.80
2023-04-18T09:19:23.834Z,14.10
2023-04-18T09:22:02.016Z,14.30
2023-04-18T09:24:34.463Z,14.30
2023-04-18T09:27:15.305Z,14.20
2023-04-18T09:29:50.090Z,14.00
2023-04-18T09:32:29.467Z,13.80
2023-04-18T09:35:05.581Z,13.70
2023-04-18T09:37:37.601Z,13.60
2023-04-18T09:40:20.694Z,13.50
2023-04-18T09:42:57.078Z,13.40
2023-04-18T09:45:29.056Z,13.20
2023-04-18T09:48:01.237Z,13.10
2023-04-18T09:50:35.226Z,13.10
2023-04-18T09:53:09.058Z,13.00
2023-04-18T09:55:42.429Z,13.00
2023-04-18T09:58:14.870Z,13.10
2023-04-18T10:00:47.581Z,13.30
2023-04-18T10:03:22.392Z,13.40
2023-04-18T10:05:57.672Z,13.40
2023-04-18T10:08:30.531Z,13.40
2023-04-18T10:11:02.486Z,13.20
2023-04-18T10:13:39.014Z,13.20
2023-04-18T10:16:11.522Z,13.10
2023-04-18T10:18:43.529Z,13.00
2023-04-18T10:21:15.531Z,13.00
2023-04-18T10:23:49.095Z,12.90
2023-04-18T10:26:21.808Z,12.90
2023-04-18T10:28:58.933Z,12.90
2023-04-18T10:31:39.530Z,12.80
2023-04-18T10:34:17.496Z,12.80
2023-04-18T10:37:06.429Z,12.80
2023-04-18T10:40:08.307Z,12.80
2023-04-18T10:42:58.811Z,12.90
2023-04-18T10:45:32.611Z,13.00
2023-04-18T10:48:30.267Z,13.10
2023-04-18T10:51:16.736Z,13.30
2023-04-18T10:53:57.664Z,13.40
2023-04-18T10:56:29.970Z,13.40
2023-04-18T10:59:03.801Z,13.50
2023-04-18T11:01:42.717Z,13.50
2023-04-18T11:04:15.404Z,13.50
2023-04-18T11:06:57.279Z,13.40
2023-04-18T11:09:29.245Z,13.40
2023-04-18T11:12:07.779Z,13.40
2023-04-18T11:14:45.360Z,13.40
2023-04-18T11:17:25.482Z,13.40
2023-04-18T11:20:13.126Z,13.40
2023-04-18T11:22:50.400Z,13.40
2023-04-18T11:25:36.518Z,13.40
2023-04-18T11:28:09.510Z,13.30
2023-04-18T11:30:42.700Z,13.30
2023-04-18T11:33:15.796Z,13.20
2023-04-18T11:35:47.852Z,13.20
2023-04-18T11:38:19.834Z,13.20
2023-04-18T11:40:51.752Z,13.30
2023-04-18T11:43:25.423Z,13.30
2023-04-18T11:45:59.898Z,13.40
2023-04-18T11:48:40.357Z,13.40
2023-04-18T11:51:34.410Z,13.40
2023-04-18T11:54:06.634Z,13.50
2023-04-18T11:56:48.535Z,13.60
2023-04-18T11:59:20.790Z,13.70
2023-04-18T12:02:15.302Z,13.80
2023-04-18T12:04:59.300Z,13.90
2023-04-18T12:07:40.262Z,13.90
2023-04-18T12:10:29.552Z,13.90
2023-04-18T12:13:02.526Z,13.90
2023-04-18T12:15:39.329Z,14.00
2023-04-18T12:18:14.215Z,14.00
2023-04-18T12:20:52.613Z,14.00
2023-04-18T12:23:37.099Z,14.00
2023-04-18T12:26:16.622Z,14.10
2023-04-18T12:28:51.507Z,14.10
2023-04-18T12:31:23.594Z,14.20
2023-04-18T12:33:55.743Z,14.30
2023-04-18T12:36:28.751Z,14.40
2023-04-18T12:39:01.831Z,14.60
2023-04-18T12:41:34.052Z,14.70
2023-04-18T12:44:06.846Z,15.00
2023-04-18T12:46:38.877Z,15.20
2023-04-18T12:49:10.913Z,15.30
2023-04-18T12:51:43.649Z,15.30
2023-04-18T12:54:15.799Z,15.30
2023-04-18T12:56:47.866Z,15.30
2023-04-18T12:59:19.811Z,15.30
2023-04-18T13:01:51.843Z,15.40
2023-04-18T13:04:23.999Z,15.30
2023-04-18T13:06:56.401Z,15.20
2023-04-18T13:09:28.500Z,15.10
2023-04-18T13:12:00.445Z,15.10
2023-04-18T13:14:32.501Z,15.00
2023-04-18T13:17:04.569Z,15.00
2023-04-18T13:19:36.537Z,15.10
2023-04-18T13:22:08.479Z,15.10
2023-04-18T13:24:40.495Z,15.10
2023-04-18T13:27:14.635Z,15.00
2023-04-18T13:29:46.784Z,14.80
2023-04-18T13:32:18.760Z,14.70
2023-04-18T13:34:51.105Z,14.70
2023-04-18T13:37:23.995Z,14.70
2023-04-18T13:39:56.138Z,14.70
2023-04-18T13:42:28.235Z,14.80
2023-04-18T13:45:00.308Z,14.90
2023-04-18T13:47:32.469Z,15.00
2023-04-18T13:50:05.560Z,15.20
2023-04-18T13:52:37.475Z,15.30
2023-04-18T13:55:10.706Z,15.40
2023-04-18T13:57:42.631Z,15.60
2023-04-18T14:00:15.446Z,15.70
2023-04-18T14:02:47.510Z,15.70
2023-04-18T14:05:19.744Z,15.60
2023-04-18T14:07:51.721Z,15.40
2023-04-18T14:10:23.874Z,15.40
2023-04-18T14:12:55.881Z,15.30
2023-04-18T14:15:27.881Z,15.20
2023-04-18T14:18:01.042Z,15.10
2023-04-18T14:20:34.765Z,15.00
2023-04-18T14:23:06.694Z,15.10
2023-04-18T14:25:38.609Z,15.10
2023-04-18T14:28:12.324Z,15.30
2023-04-18T14:30:44.808Z,15.30
2023-04-18T14:33:17.765Z,15.30
2023-04-18T14:35:49.953Z,15.20
2023-04-18T14:38:21.890Z,15.10
2023-04-18T14:40:55.660Z,15.10
2023-04-18T14:43:28.016Z,15.00
2023-04-18T14:46:00.071Z,15.00
2023-04-18T14:48:32.097Z,15.00
2023-04-18T14:51:04.409Z,15.10
2023-04-18T14:53:36.562Z,15.10
2023-04-18T14:56:08.507Z,15.20
2023-04-18T14:58:40.455Z,15.20
2023-04-18T15:01:12.553Z,15.10
2023-04-18T15:03:44.969Z,15.10
2023-04-18T15:06:17.112Z,15.10
2023-04-18T15:08:49.133Z,15.10
2023-04-18T15:11:21.104Z,15.10
2023-04-18T15:13:53.354Z,15.10
2023-04-18T15:16:25.646Z,15.10
2023-04-18T15:18:57.707Z,15.10
2023-04-18T15:21:29.791Z,15.20
2023-04-18T15:24:01.703Z,15.40
2023-04-18T15:26:33.648Z,15.60
2023-04-18T15:29:05.658Z,15.70
2023-04-18T15:31:39.179Z,15.80
2023-04-18T15:34:12.196Z,15.90
2023-04-18T15:36:44.313Z,15.90
2023-04-18T15:39:20.170Z,15.70
2023-04-18T15:41:56.622Z,15.70
2023-04-18T15:44:30.553Z,15.70
2023-04-18T15:47:02.499Z,15.70
2023-04-18T15:49:34.512Z,15.70
2023-04-18T15:52:06.889Z,15.70
2023-04-18T15:54:42.194Z,15.70
2023-04-18T15:57:14.311Z,15.70
2023-04-18T15:59:46.241Z,15.70
2023-04-18T16:02:18.367Z,15.80
2023-04-18T16:04:50.372Z,15.80
2023-04-18T16:07:22.367Z,15.90
2023-04-18T16:09:54.318Z,15.90
2023-04-18T16:12:26.259Z,15.90
2023-04-18T16:14:58.224Z,15.90
2023-04-18T16:17:30.489Z,15.90
2023-04-18T16:20:02.712Z,15.90
2023-04-18T16:22:34.840Z,15.90
2023-04-18T16:25:07.788Z,15.80
2023-04-18T16:27:39.859Z,15.80
2023-04-18T16:30:12.340Z,15.70
2023-04-18T16:32:44.718Z,15.70
2023-04-18T16:35:16.718Z,15.70
2023-04-18T16:37:48.706Z,15.70
2023-04-18T16:40:20.682Z,15.70
2023-04-18T16:42:52.859Z,15.70
2023-04-18T16:45:24.806Z,15.70
2023-04-18T16:47:57.545Z,15.70
2023-04-18T16:50:29.507Z,15.70
2023-04-18T16:53:04.582Z,15.80
2023-04-18T16:55:36.547Z,15.80
2023-04-18T16:58:08.884Z,15.70
2023-04-18T17:00:40.912Z,15.70
2023-04-18T17:03:12.949Z,15.60
2023-04-18T17:05:45.631Z,15.60
2023-04-18T17:08:17.680Z,15.60
2023-04-18T17:10:52.727Z,15.70
2023-04-18T17:13:26.948Z,15.70
2023-04-18T17:15:59.150Z,15.70
2023-04-18T17:18:32.399Z,15.60
2023-04-18T17:21:04.324Z,15.60
2023-04-18T17:23:36.382Z,15.50
2023-04-18T17:26:09.954Z,15.40
2023-04-18T17:28:41.968Z,15.30
2023-04-18T17:31:15.665Z,15.30
2023-04-18T17:33:47.836Z,15.20
2023-04-18T17:36:19.913Z,15.10
2023-04-18T17:38:51.946Z,15.10
2023-04-18T17:41:23.914Z,15.00
2023-04-18T17:43:58.048Z,15.00
2023-04-18T17:46:31.070Z,14.90
2023-04-18T17:49:04.278Z,14.80
2023-04-18T17:51:36.233Z,14.80
2023-04-18T17:54:08.198Z,14.70
2023-04-18T17:56:40.356Z,14.70
2023-04-18T17:59:12.590Z,14.60
2023-04-18T18:01:44.777Z,14.60
2023-04-18T18:04:16.943Z,14.50
2023-04-18T18:06:56.780Z,14.40
2023-04-18T18:09:28.720Z,14.40
2023-04-18T18:12:00.694Z,14.40
2023-04-18T18:14:32.668Z,14.30
2023-04-18T18:17:05.684Z,14.30
2023-04-18T18:19:37.828Z,14.20
2023-04-18T18:22:09.799Z,14.20
2023-04-18T18:24:41.741Z,14.10
2023-04-18T18:27:13.776Z,14.10
2023-04-18T18:29:47.908Z,14.00
2023-04-18T18:32:20.496Z,14.00
2023-04-18T18:34:52.672Z,14.00
2023-04-18T18:37:26.060Z,13.90
2023-04-18T18:39:58.691Z,13.90
2023-04-18T18:42:30.736Z,13.80
2023-04-18T18:45:03.932Z,13.80
2023-04-18T18:47:39.002Z,13.80
2023-04-18T18:50:11.881Z,13.70
2023-04-18T18:52:43.941Z,13.70
2023-04-18T18:55:16.451Z,13.60
2023-04-18T18:57:48.437Z,13.60
2023-04-18T19:00:20.567Z,13.50
2023-04-18T19:02:52.943Z,13.60
2023-04-18T19:05:25.218Z,13.50
2023-04-18T19:07:57.418Z,13.50
2023-04-18T19:10:29.433Z,13.50
2023-04-18T19:13:01.491Z,13.40
2023-04-18T19:15:33.439Z,13.40
2023-04-18T19:18:05.800Z,13.30
2023-04-18T19:20:40.374Z,13.30
2023-04-18T19:23:12.353Z,13.30
2023-04-18T19:25:45.024Z,13.20
2023-04-18T19:28:18.437Z,13.20
2023-04-18T19:30:51.109Z,13.20
2023-04-18T19:33:27.566Z,13.20
2023-04-18T19:35:59.605Z,13.10
2023-04-18T19:38:32.504Z,13.10
2023-04-18T19:41:04.474Z,13.10
2023-04-18T19:43:38.416Z,13.00
2023-04-18T19:46:10.447Z,13.00
2023-04-18T19:48:42.717Z,13.00
2023-04-18T19:51:14.715Z,13.00
2023-04-18T19:53:46.758Z,12.90
2023-04-18T19:56:18.686Z,12.90
2023-04-18T19:58:51.090Z,12.90
2023-04-18T20:01:24.187Z,12.90
2023-04-18T20:03:58.651Z,12.80
2023-04-18T20:06:31.251Z,12.80
2023-04-18T20:09:04.175Z,12.80
2023-04-18T20:11:36.226Z,12.80
2023-04-18T20:14:08.187Z,12.80
2023-04-18T20:16:42.690Z,12.70
2023-04-18T20:19:15.792Z,12.70
2023-04-18T20:21:48.044Z,12.70
2023-04-18T20:24:21.163Z,12.70
2023-04-18T20:26:53.059Z,12.70
2023-04-18T20:29:25.423Z,12.70
2023-04-18T20:31:57.354Z,12.60
2023-04-18T20:34:31.343Z,12.60
2023-04-18T20:37:03.549Z,12.60
2023-04-18T20:39:38.038Z,12.60
2023-04-18T20:42:14.365Z,12.60
2023-04-18T20:44:47.021Z,12.60
2023-04-18T20:47:19.077Z,12.60
2023-04-18T20:49:51.033Z,12.50
2023-04-18T20:52:23.072Z,12.50
2023-04-18T20:54:54.966Z,12.40
2023-04-18T20:57:26.985Z,12.40
2023-04-18T20:59:59.663Z,12.40
2023-04-18T21:02:31.963Z,12.40
2023-04-18T21:05:04.270Z,12.30
2023-04-18T21:07:36.895Z,12.30
2023-04-18T21:10:09.347Z,12.30
2023-04-18T21:12:42.597Z,12.30
2023-04-18T21:15:14.588Z,12.20
2023-04-18T21:17:46.544Z,12.20
2023-04-18T21:20:19.031Z,12.20
2023-04-18T21:22:51.011Z,12.20
2023-04-18T21:25:22.972Z,12.10
2023-04-18T21:27:54.910Z,12.10
2023-04-18T21:30:26.799Z,12.10
2023-04-18T21:32:58.857Z,12.10
2023-04-18T21:35:30.849Z,12.10
2023-04-18T21:38:02.788Z,12.10
2023-04-18T21:40:34.711Z,12.00
2023-04-18T21:43:06.662Z,12.00
2023-04-18T21:45:38.713Z,12.00
2023-04-18T21:48:10.791Z,12.00
2023-04-18T21:50:43.157Z,12.00
2023-04-18T21:53:15.108Z,11.90
2023-04-18T21:55:47.200Z,11.90
2023-04-18T21:58:19.130Z,11.90
2023-04-18T22:00:51.229Z,11.90
2023-04-18T22:03:24.941Z,11.90
2023-04-18T22:05:57.807Z,11.80
2023-04-18T22:08:31.099Z,11.80
2023-04-18T22:11:04.903Z,11.80
2023-04-18T22:13:37.206Z,11.80
2023-04-18T22:16:09.430Z,11.70
2023-04-18T22:18:41.402Z,11.70
2023-04-18T22:21:13.307Z,11.70
2023-04-18T22:23:45.421Z,11.70
2023-04-18T22:26:17.352Z,11.70
2023-04-18T22:28:49.428Z,11.60
2023-04-18T22:31:21.494Z,11.60
2023-04-18T22:33:53.547Z,11.60
2023-04-18T22:36:27.013Z,11.60
2023-04-18T22:38:58.955Z,11.60
2023-04-18T22:41:30.929Z,11.50
2023-04-18T22:44:03.472Z,11.50
2023-04-18T22:46:38.484Z,11.50
2023-04-18T22:49:10.876Z,11.50
2023-04-18T22:51:44.025Z,11.50
2023-04-18T22:54:16.252Z,11.40
2023-04-18T22:56:51.453Z,11.40
2023-04-18T22:59:23.361Z,11.40
2023-04-18T23:01:55.619Z,11.40
2023-04-18T23:04:30.216Z,11.30
2023-04-18T23:07:02.503Z,11.30
2023-04-18T23:09:34.492Z,11.30
2023-04-18T23:12:06.600Z,11.30
2023-04-18T23:14:38.947Z,11.30
2023-04-18T23:17:10.890Z,11.20
2023-04-18T23:19:45.095Z,11.30
2023-04-18T23:22:17.071Z,11.30
2023-04-18T23:24:48.964Z,11.30
2023-04-18T23:27:21.005Z,11.20
2023-04-18T23:29:52.939Z,11.20
2023-04-18T23:32:24.914Z,11.20
2023-04-18T23:34:56.930Z,11.20
2023-04-18T23:37:28.782Z,11.30
2023-04-18T23:40:01.042Z,11.30
2023-04-18T23:42:35.783Z,11.30
2023-04-18T23:45:08.236Z,11.40
2023-04-18T23:47:40.312Z,11.50
2023-04-18T23:50:12.636Z,11.50
2023-04-18T23:52:44.554Z,11.50
2023-04-18T23:55:17.453Z,11.60
2023-04-18T23:57:49.401Z,11.60
